Flight Track Log - Related Links

Times and Time Zones

All times are in EDT time to prevent confusion due to time zone crossing. See the AAL1459 flight status page for this flight to view local times or setup timezone preferences in your user account.

Time Position Orientation Groundspeed Altitude Reporting Facility
EDT Latitude Longitude Course Direction KTS MPH feet Rate Location/Type
Mon 07:09:00 PM 42.0000 -87.8667 270° West 170 196 2,700  Level Chicago TRACON
Mon 07:10:00 PM 41.9991 -88.1901 289° West  Level Estimated
Mon 07:10:00 PM 42.0500 -87.9333 315° West 256 295 4,700  Level Chicago TRACON
Mon 07:11:00 PM 42.0076 -88.3319 282° West  Level Estimated
Mon 07:11:06 PM 42.1167 -88.0000 323° Northwest 262 302 5,400  Level Chicago TRACON
Mon 07:11:42 PM 42.1369 -88.0278 315° West 263 303 6,700 2,633 Climbing Chicago Center
Mon 07:12:00 PM 42.0540 -88.4597 296° West  Level FlightAware Approximate
Mon 07:12:44 PM 42.1631 -88.1122 293° West 262 302 9,700  Level Chicago Center
Mon 07:13:00 PM 42.0620 -88.6017 285° West  Level Estimated
Mon 07:13:46 PM 42.1642 -88.2314 271° West 266 306 12,400  Level Chicago Center
Mon 07:14:00 PM 42.0698 -88.7437 270° West  Level Estimated
Mon 07:14:48 PM 42.1644 -88.3519 270° West 317 365 14,600  Level Chicago Center
Mon 07:15:50 PM 42.1631 -88.4792 269° West 337 388 17,300 2,419 Climbing Chicago Center
Mon 07:16:52 PM 42.1639 -88.6081 271° West 344 396 19,600 2,565 Climbing Chicago Center
Mon 07:17:54 PM 42.1625 -88.7672 269° West 354 407 22,600 2,274 Climbing Chicago Center
Mon 07:18:56 PM 42.1611 -88.8956 269° West 369 425 24,300 1,694 Climbing Chicago Center
Mon 07:19:58 PM 42.1569 -89.0394 268° West 380 437 26,100 1,694 Climbing Chicago Center
Mon 07:21:00 PM 42.1542 -89.1861 269° West 390 449 27,800 1,887 Climbing Chicago Center
Mon 07:22:02 PM 42.1494 -89.3667 268° West 400 460 30,000 1,968 Climbing Chicago Center
Mon 07:23:05 PM 42.1442 -89.5125 267° West 392 451 31,900 1,824 Climbing Chicago Center
Mon 07:24:07 PM 42.1411 -89.6569 268° West 387 445 33,800 1,984 Climbing Chicago Center
Mon 07:25:09 PM 42.1369 -89.7917 268° West 365 420 36,000 1,306 Climbing Chicago Center
Mon 07:26:11 PM 42.1347 -89.9294 269° West 351 404 36,500 532 Climbing Chicago Center
Mon 07:27:13 PM 42.1419 -90.0622 274° West 357 411 37,100 581 Climbing Chicago Center
Mon 07:28:15 PM 42.1475 -90.1992 273° West 365 420 37,700 435 Climbing Chicago Center
Mon 07:29:17 PM 42.1525 -90.3358 273° West 369 425 38,000 144 Climbing Chicago Center
Mon 07:30:20 PM 42.1603 -90.5003 274° West 369 425 38,000  Level Chicago Center
Mon 07:31:21 PM 42.1644 -90.6378 272° West 369 425 38,000  Level Chicago Center
Mon 07:32:23 PM 42.1697 -90.7758 273° West 371 427 38,000  Level Chicago Center
Mon 07:33:25 PM 42.1753 -90.9128 273° West 370 426 38,000  Level Chicago Center
Mon 07:34:28 PM 42.1789 -91.0522 272° West 374 430 38,000  Level Chicago Center
Mon 07:35:30 PM 42.1844 -91.2164 273° West 368 423 38,000  Level Chicago Center
Mon 07:36:32 PM 42.1894 -91.3531 273° West 367 422 38,000  Level Chicago Center
Mon 07:37:34 PM 42.1933 -91.4894 272° West 365 420 38,000  Level Chicago Center
Mon 07:38:36 PM 42.1978 -91.6261 273° West 365 420 38,000  Level Chicago Center
Mon 07:39:38 PM 42.2019 -91.7628 272° West 365 420 38,000  Level Chicago Center
Mon 07:40:40 PM 42.2056 -91.9011 272° West 367 422 38,000  Level Chicago Center
Mon 07:41:42 PM 42.2103 -92.0669 272° West 370 426 38,000  Level Chicago Center
Mon 07:42:44 PM 42.2122 -92.2067 271° West 374 430 38,000  Level Chicago Center
Mon 07:43:46 PM 42.2161 -92.3464 272° West 375 432 38,000  Level Chicago Center
Mon 07:44:48 PM 42.2186 -92.4869 271° West 377 434 38,000  Level Chicago Center
Mon 07:45:51 PM 42.2217 -92.6278 272° West 379 436 38,000  Level Chicago Center
Mon 07:46:53 PM 42.2253 -92.7953 272° West 378 435 38,000  Level Chicago Center
Mon 07:47:55 PM 42.2283 -92.9356 272° West 378 435 38,000  Level Chicago Center
Mon 07:48:57 PM 42.2297 -93.0761 271° West 377 434 38,000  Level Chicago Center
Mon 07:49:32 PM 42.2319 -93.1594 272° West 377 434 38,000  Level Minneapolis Center
Mon 07:50:34 PM 42.2333 -93.3000 271° West 377 434 38,000  Level Minneapolis Center
Mon 07:51:36 PM 42.2358 -93.4403 271° West 377 434 38,000  Level Minneapolis Center
Mon 07:52:38 PM 42.2375 -93.5808 271° West 377 434 38,000  Level Minneapolis Center
Mon 07:53:40 PM 42.2389 -93.7478 271° West 375 432 38,000  Level Minneapolis Center
Mon 07:54:42 PM 42.2397 -93.8925 270° West 377 434 38,000  Level Minneapolis Center
Mon 07:55:44 PM 42.2417 -94.0300 271° West 379 436 38,000  Level Minneapolis Center
Mon 07:56:46 PM 42.2425 -94.1708 271° West 377 434 38,000  Level Minneapolis Center
Mon 07:57:48 PM 42.2464 -94.3336 272° West 381 438 38,000  Level Minneapolis Center
Mon 07:58:50 PM 42.2478 -94.4769 271° West 382 440 38,000  Level Minneapolis Center
Mon 07:59:52 PM 42.2467 -94.6181 269° West 380 437 38,000  Level Minneapolis Center
Mon 08:00:54 PM 42.2461 -94.7608 270° West 381 438 38,000  Level Minneapolis Center
Mon 08:01:56 PM 42.2458 -94.9047 270° West 383 441 38,000  Level Minneapolis Center
Mon 08:02:58 PM 42.2456 -95.0756 270° West 381 438 38,000  Level Minneapolis Center
Mon 08:04:00 PM 42.2469 -95.2186 271° West 382 440 38,000  Level Minneapolis Center
Mon 08:05:02 PM 42.2456 -95.3583 269° West 376 433 38,000  Level Minneapolis Center
Mon 08:06:04 PM 42.2450 -95.4983 270° West 375 432 38,000  Level Minneapolis Center
Mon 08:07:06 PM 42.2442 -95.6378 270° West 373 429 38,000  Level Minneapolis Center
Mon 08:08:08 PM 42.2431 -95.8042 270° West 370 426 38,000  Level Minneapolis Center
Mon 08:09:10 PM 42.2433 -95.9442 270° West 373 429 38,000  Level Minneapolis Center
Mon 08:10:12 PM 42.2411 -96.0842 269° West 375 432 38,000 48 Level Minneapolis Center
Mon 08:11:14 PM 42.2389 -96.2256 269° West 377 434 38,100 484 Climbing Minneapolis Center
Mon 08:12:16 PM 42.2378 -96.3658 269° West 376 433 39,000 435 Climbing Minneapolis Center
Mon 08:13:18 PM 42.2364 -96.5078 269° West 377 434 39,000  Level Minneapolis Center
Mon 08:14:20 PM 42.2342 -96.6750 269° West 375 432 39,000  Level Minneapolis Center
Mon 08:15:22 PM 42.2317 -96.8147 269° West 374 430 39,000  Level Minneapolis Center
Mon 08:16:24 PM 42.2303 -96.9533 269° West 372 428 39,000  Level Minneapolis Center
Mon 08:17:26 PM 42.2267 -97.0919 268° West 371 427 39,000  Level Minneapolis Center
Mon 08:18:30 PM 42.2239 -97.2303 268° West 371 427 39,000  Level Minneapolis Center
Mon 08:19:32 PM 42.2208 -97.3989 269° West 374 430 39,000  Level Minneapolis Center
Mon 08:20:34 PM 42.2181 -97.5392 269° West 376 433 39,000  Level Minneapolis Center
Mon 08:21:36 PM 42.2142 -97.6792 268° West 375 432 39,000  Level Minneapolis Center
Mon 08:22:38 PM 42.2108 -97.8197 268° West 376 433 39,000  Level Minneapolis Center
Mon 08:23:40 PM 42.2075 -97.9783 268° West 376 433 39,000  Level Minneapolis Center
Mon 08:24:41 PM 42.2033 -98.1169 268° West 374 430 39,000  Level Minneapolis Center
Mon 08:25:43 PM 42.2008 -98.2561 269° West 372 428 39,000  Level Minneapolis Center
Mon 08:26:45 PM 42.1961 -98.3956 267° West 373 429 39,000  Level Minneapolis Center
Mon 08:27:47 PM 42.1917 -98.5358 268° West 375 432 39,000  Level Minneapolis Center
Mon 08:28:49 PM 42.1872 -98.6753 268° West 374 430 39,000  Level Minneapolis Center
Mon 08:29:51 PM 42.1811 -98.8453 267° West 377 434 39,000  Level Minneapolis Center
Mon 08:30:53 PM 42.1769 -98.9867 268° West 379 436 39,000  Level Minneapolis Center
Mon 08:31:55 PM 42.1717 -99.1308 267° West 383 441 39,000 -97 Level Minneapolis Center
Mon 08:32:57 PM 42.1664 -99.2742 267° West 384 442 38,800 -484 Descending Minneapolis Center
Mon 08:33:59 PM 42.1614 -99.4169 267° West 383 441 38,000 -387 Descending Minneapolis Center
Mon 08:35:01 PM 42.1547 -99.5578 266° West 378 435 38,000  Level Minneapolis Center
Mon 08:36:03 PM 42.1486 -99.7267 267° West 377 434 38,000  Level Minneapolis Center
Mon 08:37:05 PM 42.1442 -99.8678 268° West 378 435 38,000  Level Minneapolis Center
Mon 08:38:07 PM 42.1356 -100.0103 265° West 380 437 38,000  Level Minneapolis Center
Mon 08:39:09 PM 42.1294 -100.1542 267° West 383 441 38,000  Level Minneapolis Center
Mon 08:40:11 PM 42.1222 -100.3003 266° West 388 447 38,000  Level Minneapolis Center
Mon 08:41:13 PM 42.1161 -100.4469 267° West 390 449 38,000  Level Minneapolis Center
Mon 08:42:15 PM 42.1081 -100.6219 267° West 391 450 38,000  Level Minneapolis Center
Mon 08:43:17 PM 42.1008 -100.7658 266° West 389 448 38,000  Level Minneapolis Center
Mon 08:44:36 PM 42.0917 -100.9394 266° West 382 440 38,000  Level Denver Center
Mon 08:45:38 PM 42.0836 -101.0994 266° West 384 442 38,000  Level Denver Center
Mon 08:46:40 PM 42.0756 -101.2342 265° West 381 438 38,000  Level Denver Center
Mon 08:47:42 PM 42.0667 -101.3911 266° West 378 435 38,000  Level Denver Center
Mon 08:48:44 PM 42.0594 -101.5242 266° West 375 432 38,000  Level Denver Center
Mon 08:49:45 PM 42.0506 -101.6792 266° West 374 430 38,000  Level Denver Center
Mon 08:50:47 PM 42.0442 -101.8122 266° West 374 430 38,000  Level Denver Center
Mon 08:51:49 PM 42.0344 -101.9678 265° West 375 432 38,000  Level Denver Center
Mon 08:52:51 PM 42.0256 -102.1014 265° West 376 433 38,000  Level Denver Center
Mon 08:53:53 PM 42.0164 -102.2414 265° West 376 433 38,000  Level Denver Center
Mon 08:54:55 PM 42.0064 -102.3983 265° West 379 436 38,000  Level Denver Center
Mon 08:55:57 PM 41.9978 -102.5322 265° West 377 434 38,000  Level Denver Center
Mon 08:56:59 PM 41.9867 -102.6892 265° West 379 436 38,000  Level Denver Center
Mon 08:58:01 PM 41.9786 -102.8236 265° West 378 435 38,000  Level Denver Center
Mon 08:59:04 PM 41.9675 -102.9819 265° West 382 440 38,000  Level Denver Center
Mon 09:00:06 PM 41.9569 -103.1186 264° West 385 443 38,000  Level Denver Center
Mon 09:01:08 PM 41.9453 -103.2786 264° West 387 445 38,000  Level Denver Center
Mon 09:02:10 PM 41.9347 -103.4161 264° West 387 445 38,000  Level Denver Center
Mon 09:03:12 PM 41.9239 -103.5767 265° West 387 445 38,000  Level Denver Center
Mon 09:04:14 PM 41.9128 -103.7136 264° West 386 444 38,000  Level Denver Center
Mon 09:05:16 PM 41.9003 -103.8711 264° West 381 438 38,000  Level Denver Center
Mon 09:06:17 PM 41.8897 -104.0067 264° West 382 440 38,000  Level Denver Center
Mon 09:07:19 PM 41.8803 -104.1397 265° West 376 433 38,000  Level Denver Center
Mon 09:08:21 PM 41.8658 -104.2958 263° West 376 433 38,000  Level Denver Center
Mon 09:09:23 PM 41.8558 -104.4281 264° West 375 432 38,000  Level Denver Center
Mon 09:10:25 PM 41.8428 -104.5828 264° West 374 430 38,000  Level Denver Center
Mon 09:11:26 PM 41.8319 -104.7164 264° West 377 434 38,000  Level Denver Center
Mon 09:12:28 PM 41.8181 -104.8725 263° West 377 434 38,000  Level Denver Center
Mon 09:13:30 PM 41.8072 -105.0061 264° West 377 434 38,000  Level Denver Center
Mon 09:14:32 PM 41.7950 -105.1397 263° West 377 434 38,000  Level Denver Center
Mon 09:15:33 PM 41.7814 -105.2947 263° West 376 433 38,000  Level Denver Center
Mon 09:16:35 PM 41.7692 -105.4272 263° West 376 433 38,000  Level Denver Center
Mon 09:17:37 PM 41.7547 -105.5811 263° West 374 430 38,000  Level Denver Center
Mon 09:18:39 PM 41.7431 -105.7094 263° West 367 422 38,000  Level Denver Center
Mon 09:19:40 PM 41.7283 -105.8594 263° West 364 419 38,000  Level Denver Center
Mon 09:20:42 PM 41.7156 -105.9861 262° West 360 414 38,000  Level Denver Center
Mon 09:21:44 PM 41.7025 -106.1378 263° West 367 422 38,000  Level Denver Center
Mon 09:22:46 PM 41.6886 -106.2642 262° West 363 418 38,000  Level Denver Center
Mon 09:23:47 PM 41.6772 -106.3936 263° West 367 422 38,000  Level Denver Center
Mon 09:24:49 PM 41.6606 -106.5492 262° West 375 432 38,000  Level Denver Center
Mon 09:25:51 PM 41.6467 -106.6808 262° West 375 432 38,000  Level Denver Center
Mon 09:26:53 PM 41.6325 -106.8353 263° West 375 432 38,000  Level Denver Center
Mon 09:27:55 PM 41.6169 -106.9642 261° West 369 425 38,000  Level Denver Center
Mon 09:28:56 PM 41.6017 -107.1183 263° West 374 430 38,000  Level Denver Center
Mon 09:29:58 PM 41.5864 -107.2478 261° West 371 427 38,000  Level Denver Center
Mon 09:31:00 PM 41.5736 -107.3769 263° West 366 421 38,000  Level Denver Center
Mon 09:32:02 PM 41.5572 -107.5261 262° West 364 419 38,000  Level Denver Center
Mon 09:33:04 PM 41.5433 -107.6533 262° West 363 418 38,000  Level Denver Center
Mon 09:34:06 PM 41.5267 -107.8008 261° West 360 414 38,000  Level Denver Center
Mon 09:35:08 PM 41.5128 -107.9258 262° West 359 413 38,000  Level Denver Center
Mon 09:36:09 PM 41.4956 -108.0733 261° West 360 414 38,000  Level Denver Center
Mon 09:37:11 PM 41.4811 -108.1981 261° West 356 410 38,000  Level Denver Center
Mon 09:38:13 PM 41.4642 -108.3472 261° West 364 419 38,000  Level Denver Center
Mon 09:39:22 PM 41.4456 -108.5008 261° West 375 432 38,000  Level Salt Lake Center
Mon 09:40:24 PM 41.4306 -108.6300 261° West 368 423 38,000  Level Salt Lake Center
Mon 09:41:25 PM 41.4119 -108.7811 261° West 369 425 38,000  Level Salt Lake Center
Mon 09:42:27 PM 41.3958 -108.9144 261° West 379 436 38,000  Level Salt Lake Center
Mon 09:43:29 PM 41.3786 -109.0511 261° West 385 443 38,000  Level Salt Lake Center
Mon 09:44:30 PM 41.3564 -109.2197 260° West 404 465 38,000  Level Salt Lake Center
Mon 09:45:32 PM 41.3392 -109.3597 261° West 400 460 38,000  Level Salt Lake Center
Mon 09:46:33 PM 41.3214 -109.4989 260° West 398 458 38,000  Level Salt Lake Center
Mon 09:47:35 PM 41.3000 -109.6656 260° West 407 468 38,000  Level Salt Lake Center
Mon 09:48:36 PM 41.2808 -109.8100 260° West 412 474 38,000  Level Salt Lake Center
Mon 09:49:38 PM 41.2586 -109.9767 260° West 411 473 38,000  Level Salt Lake Center
Mon 09:50:39 PM 41.2397 -110.1208 260° West 413 475 38,000  Level Salt Lake Center
Mon 09:51:41 PM 41.2197 -110.2642 260° West 413 475 38,000  Level Salt Lake Center
Mon 09:52:42 PM 41.1972 -110.4322 260° West 413 475 38,000  Level Salt Lake Center
Mon 09:53:43 PM 41.1778 -110.5775 260° West 417 480 38,000  Level Salt Lake Center
Mon 09:54:45 PM 41.1528 -110.7481 259° West 422 486 38,000  Level Salt Lake Center
Mon 09:55:46 PM 41.1333 -110.8936 260° West 420 483 38,000  Level Salt Lake Center
Mon 09:56:48 PM 41.1106 -111.0542 259° West 418 481 38,000  Level Salt Lake Center
Mon 09:57:49 PM 41.0894 -111.2047 260° West 416 479 38,000  Level Salt Lake Center
Mon 09:58:51 PM 41.0678 -111.3553 259° West 416 479 38,000  Level Salt Lake Center
Mon 09:59:52 PM 41.0456 -111.5061 259° West 418 481 38,000  Level Salt Lake Center
Mon 10:00:54 PM 41.0236 -111.6589 259° West 423 487 38,000  Level Salt Lake Center
Mon 10:01:55 PM 40.9986 -111.8239 259° West 419 482 38,000  Level Salt Lake Center
Mon 10:02:57 PM 40.9756 -111.9719 258° West 422 486 38,000  Level Salt Lake Center
Mon 10:03:58 PM 40.9525 -112.1219 259° West 416 479 38,000  Level Salt Lake Center
Mon 10:05:00 PM 40.9306 -112.2731 259° West 418 481 38,000  Level Salt Lake Center
Mon 10:06:01 PM 40.9031 -112.4200 256° West 413 475 38,000  Level Salt Lake Center
Mon 10:07:03 PM 40.8761 -112.5667 256° West 412 474 38,000  Level Salt Lake Center
Mon 10:08:04 PM 40.8419 -112.7422 256° West 413 475 38,000  Level Salt Lake Center
Mon 10:09:06 PM 40.8147 -112.8872 256° West 409 471 38,000  Level Salt Lake Center
Mon 10:10:07 PM 40.7861 -113.0331 256° West 412 474 38,000  Level Salt Lake Center
Mon 10:11:09 PM 40.7583 -113.1775 256° West 407 468 38,000  Level Salt Lake Center
Mon 10:12:10 PM 40.7308 -113.3233 256° West 410 472 38,000  Level Salt Lake Center
Mon 10:13:12 PM 40.7022 -113.4692 256° West 411 473 38,000  Level Salt Lake Center
Mon 10:14:13 PM 40.6700 -113.6139 254° West 413 475 38,000  Level Salt Lake Center
Mon 10:15:15 PM 40.6394 -113.7631 255° West 420 483 38,000  Level Salt Lake Center
Mon 10:16:16 PM 40.6036 -113.9447 255° West 428 493 38,000  Level Salt Lake Center
Mon 10:17:18 PM 40.5728 -114.0958 255° West 430 495 38,000  Level Salt Lake Center
Mon 10:18:19 PM 40.5417 -114.2433 255° West 422 486 38,000  Level Salt Lake Center
Mon 10:19:21 PM 40.5114 -114.3906 255° West 420 483 38,000  Level Salt Lake Center
Mon 10:20:22 PM 40.4808 -114.5406 255° West 424 488 38,000  Level Salt Lake Center
Mon 10:21:23 PM 40.4489 -114.6897 254° West 426 490 38,000  Level Salt Lake Center
Mon 10:22:25 PM 40.4169 -114.8428 255° West 430 495 38,000  Level Salt Lake Center
Mon 10:23:26 PM 40.3808 -115.0131 254° West 433 498 38,000  Level Salt Lake Center
Mon 10:24:28 PM 40.3483 -115.1603 254° West 438 504 38,000  Level Salt Lake Center
Mon 10:25:29 PM 40.3119 -115.3308 254° West 435 501 38,000  Level Salt Lake Center
Mon 10:26:31 PM 40.2814 -115.4769 255° West 434 499 38,000  Level Salt Lake Center
Mon 10:27:32 PM 40.2492 -115.6206 254° West 432 497 38,000  Level Salt Lake Center
Mon 10:28:34 PM 40.2111 -115.7889 254° West 430 495 38,000  Level Salt Lake Center
Mon 10:29:35 PM 40.1781 -115.9333 253° West 431 496 38,000  Level Salt Lake Center
Mon 10:30:37 PM 40.1408 -116.1017 254° West 430 495 38,000  Level Salt Lake Center
Mon 10:31:38 PM 40.1056 -116.2489 253° West 437 503 38,000 -195 Level Salt Lake Center
Mon 10:32:40 PM 40.0731 -116.3936 254° West 434 499 37,600 -732 Descending Salt Lake Center
Mon 10:33:41 PM 40.0336 -116.5661 253° West 438 504 36,500 -976 Descending Salt Lake Center
Mon 10:34:43 PM 39.9975 -116.7194 253° West 452 520 35,600 -878 Descending Salt Lake Center
Mon 10:35:44 PM 39.9611 -116.8742 253° West 460 529 34,700 -780 Descending Salt Lake Center
Mon 10:36:46 PM 39.9211 -117.0489 253° West 449 517 34,000 -341 Descending Salt Lake Center
Mon 10:37:47 PM 39.8861 -117.1981 253° West 447 514 34,000  Level Salt Lake Center
Mon 10:38:49 PM 39.8442 -117.3717 253° West 448 516 34,000  Level Salt Lake Center
Mon 10:39:19 PM 39.8269 -117.4439 253° West 445 512 34,000 -330 Level Oakland Center
Mon 10:40:20 PM 39.7917 -117.5942 253° West 451 519 33,500 -787 Descending Oakland Center
Mon 10:41:21 PM 39.7508 -117.7575 252° West 447 514 32,400 -1,328 Descending Oakland Center
Mon 10:42:22 PM 39.7125 -117.9172 253° West 459 528 30,800 -1,659 Descending Oakland Center
Mon 10:43:24 PM 39.6725 -118.0814 252° West 475 547 29,000 -1,756 Descending Oakland Center
Mon 10:44:25 PM 39.6325 -118.2433 252° West 473 544 27,200 -1,869 Descending Oakland Center
Mon 10:45:26 PM 39.5925 -118.4053 252° West 474 545 25,200 -1,967 Descending Oakland Center
Mon 10:46:27 PM 39.5536 -118.5606 252° West 462 532 23,200 -2,164 Descending Oakland Center
Mon 10:47:28 PM 39.5094 -118.7372 252° West 441 507 20,800 -2,098 Descending Oakland Center
Mon 10:48:30 PM 39.4739 -118.8775 252° West 425 489 18,900 -1,951 Descending Oakland Center
Mon 10:49:31 PM 39.4397 -119.0089 251° West 416 479 16,800 -1,426 Descending Oakland Center
Mon 10:50:32 PM 39.4039 -119.1508 252° West 399 459 16,000 -393 Descending Oakland Center
Mon 10:51:33 PM 39.3703 -119.2808 252° West 385 443 16,000 -344 Level Oakland Center
Mon 10:52:34 PM 39.3319 -119.4022 248° West 372 428 15,300 -1,180 Descending Oakland Center
Mon 10:53:35 PM 39.2492 -119.4836 217° Southwest 374 430 13,600 -1,415 Descending Oakland Center
Mon 10:54:37 PM 39.1558 -119.5706 216° Southwest 351 404 12,400 -1,268 Descending Oakland Center
Mon 10:55:38 PM 39.1364 -119.6664 255° West 307 353 11,000 -1,328 Descending Oakland Center
Mon 10:56:39 PM 39.1658 -119.7361 299° West 271 312 9,700 -984 Descending Oakland Center
Mon 10:57:40 PM 39.2194 -119.7700 334° Northwest 235 270 9,000 -344 Descending Oakland Center
Mon 10:58:41 PM 39.2764 -119.7719 358° North 216 249 9,000 -344 Level Oakland Center
Mon 10:59:42 PM 39.3353 -119.7703 North 208 239 8,300 -1,039 Descending Oakland Center
Mon 11:00:48 PM 39.3833 -119.7667 North 158 182 6,800 -1,190 Descending Northern Cal TRACON
Mon 11:01:48 PM 39.4333 -119.7667 360° North 157 181 5,800 -950 Descending Northern Cal TRACON
Mon 11:02:48 PM 39.4667 -119.7667 360° North 154 177 4,900 -900 Descending Northern Cal TRACON

Login

Don't have an account? Register now (free) for customized features, flight alerts, and more!